createdAt,value
2023-08-12T00:02:11.878Z,9.43
2023-08-12T00:04:38.487Z,6.00
2023-08-12T00:07:05.221Z,8.10
2023-08-12T00:09:31.816Z,8.23
2023-08-12T00:11:58.494Z,8.00
2023-08-12T00:14:25.099Z,8.33
2023-08-12T00:16:51.577Z,6.80
2023-08-12T00:19:18.088Z,5.43
2023-08-12T00:21:44.633Z,7.10
2023-08-12T00:24:11.253Z,6.03
2023-08-12T00:26:37.832Z,7.53
2023-08-12T00:29:05.550Z,6.50
2023-08-12T00:31:32.155Z,7.03
2023-08-12T00:33:58.633Z,6.93
2023-08-12T00:36:25.188Z,8.75
2023-08-12T00:38:52.273Z,9.33
2023-08-12T00:41:18.998Z,7.15
2023-08-12T00:43:45.852Z,7.43
2023-08-12T00:46:13.938Z,7.57
2023-08-12T00:48:41.261Z,6.57
2023-08-12T00:51:07.841Z,7.97
2023-08-12T00:53:34.891Z,7.78
2023-08-12T00:56:01.538Z,9.27
2023-08-12T00:58:27.983Z,8.18
2023-08-12T01:00:54.641Z,8.63
2023-08-12T01:03:21.371Z,9.70
2023-08-12T01:05:48.252Z,7.95
2023-08-12T01:08:14.771Z,9.65
2023-08-12T01:10:50.525Z,10.55
2023-08-12T01:13:57.926Z,7.75
2023-08-12T01:16:27.734Z,9.27
2023-08-12T01:18:54.264Z,9.40
2023-08-12T01:21:22.800Z,7.32
2023-08-12T01:23:49.373Z,9.50
2023-08-12T01:26:15.798Z,8.57
2023-08-12T01:28:42.351Z,11.23
2023-08-12T01:31:58.869Z,11.07
2023-08-12T01:34:37.906Z,8.60
2023-08-12T01:37:10.020Z,9.00
2023-08-12T01:39:38.878Z,8.68
2023-08-12T01:42:07.649Z,10.43
2023-08-12T01:44:34.195Z,10.80
2023-08-12T01:47:03.581Z,10.43
2023-08-12T01:49:30.033Z,8.73
2023-08-12T01:51:56.470Z,8.70
2023-08-12T01:54:22.921Z,8.70
2023-08-12T01:56:49.280Z,8.93
2023-08-12T01:59:15.708Z,7.50
2023-08-12T02:01:42.255Z,12.07
2023-08-12T02:04:10.875Z,8.15
2023-08-12T02:06:37.440Z,9.53
2023-08-12T02:09:03.953Z,8.40
2023-08-12T02:11:30.466Z,15.48
2023-08-12T02:13:56.862Z,10.45
2023-08-12T02:16:23.283Z,10.50
2023-08-12T02:18:49.729Z,10.40
2023-08-12T02:21:16.195Z,11.30
2023-08-12T02:23:42.610Z,9.90
2023-08-12T02:26:08.995Z,10.10
2023-08-12T02:28:35.482Z,14.88
2023-08-12T02:31:02.669Z,9.40
2023-08-12T02:33:29.111Z,14.27
2023-08-12T02:35:55.604Z,12.88
2023-08-12T02:38:22.635Z,10.95
2023-08-12T02:40:50.441Z,9.27
2023-08-12T02:43:18.084Z,14.50
2023-08-12T02:45:44.535Z,14.40
2023-08-12T02:48:11.432Z,15.75
2023-08-12T02:50:38.332Z,10.70
2023-08-12T02:53:06.292Z,13.05
2023-08-12T02:55:33.091Z,14.97
2023-08-12T02:58:02.052Z,10.93
2023-08-12T03:00:28.889Z,16.02
2023-08-12T03:02:55.632Z,12.05
2023-08-12T03:05:22.796Z,13.90
2023-08-12T03:07:49.438Z,13.87
2023-08-12T03:10:15.951Z,13.15
2023-08-12T03:12:42.395Z,14.32
2023-08-12T03:15:09.233Z,16.02
2023-08-12T03:17:35.857Z,14.27
2023-08-12T03:20:02.518Z,13.17
2023-08-12T03:22:29.006Z,14.45
2023-08-12T03:24:55.502Z,12.85
2023-08-12T03:27:23.194Z,11.65
2023-08-12T03:29:49.645Z,13.93
2023-08-12T03:32:16.092Z,9.13
2023-08-12T03:34:42.537Z,13.60
2023-08-12T03:37:09.303Z,13.85
2023-08-12T03:39:36.110Z,11.02
2023-08-12T03:42:02.605Z,12.05
2023-08-12T03:44:28.990Z,12.20
2023-08-12T03:46:55.471Z,15.00
2023-08-12T03:49:22.675Z,13.00
2023-08-12T03:51:49.185Z,14.52
2023-08-12T03:54:15.614Z,15.82
2023-08-12T03:56:42.195Z,14.87
2023-08-12T03:59:09.734Z,13.73
2023-08-12T04:01:36.246Z,13.55
2023-08-12T04:04:02.681Z,17.20
2023-08-12T04:06:29.177Z,16.50
2023-08-12T04:08:56.335Z,17.53
2023-08-12T04:11:22.801Z,17.85
2023-08-12T04:13:49.257Z,19.48
2023-08-12T04:16:16.668Z,14.15
2023-08-12T04:18:43.202Z,15.48
2023-08-12T04:21:09.631Z,11.07
2023-08-12T04:23:36.069Z,15.38
2023-08-12T04:26:02.452Z,16.65
2023-08-12T04:28:28.967Z,17.08
2023-08-12T04:30:55.561Z,13.90
2023-08-12T04:33:22.127Z,13.37
2023-08-12T04:35:48.649Z,13.55
2023-08-12T04:38:15.124Z,18.15
2023-08-12T04:40:42.768Z,11.43
2023-08-12T04:43:10.640Z,19.38
2023-08-12T04:45:37.544Z,15.07
2023-08-12T04:48:04.384Z,16.60
2023-08-12T04:50:34.006Z,13.57
2023-08-12T04:53:00.465Z,13.40
2023-08-12T04:55:27.101Z,15.27
2023-08-12T04:57:53.705Z,17.40
2023-08-12T05:00:20.176Z,14.18
2023-08-12T05:02:46.901Z,14.00
2023-08-12T05:05:13.814Z,15.73
2023-08-12T05:07:41.526Z,14.70
2023-08-12T05:10:08.508Z,19.83
2023-08-12T05:12:34.968Z,18.38
2023-08-12T05:15:01.486Z,18.25
2023-08-12T05:17:28.036Z,15.00
2023-08-12T05:19:54.540Z,17.48
2023-08-12T05:22:20.907Z,19.13
2023-08-12T05:24:47.357Z,17.63
2023-08-12T05:27:13.899Z,13.85
2023-08-12T05:29:40.459Z,16.63
2023-08-12T05:32:07.017Z,17.15
2023-08-12T05:34:33.584Z,15.03
2023-08-12T05:36:59.975Z,14.88
2023-08-12T05:39:26.352Z,17.02
2023-08-12T05:41:52.781Z,15.52
2023-08-12T05:44:19.271Z,16.98
2023-08-12T05:46:45.925Z,13.20
2023-08-12T05:49:12.612Z,16.70
2023-08-12T05:51:39.070Z,17.23
2023-08-12T05:54:06.015Z,17.70
2023-08-12T05:56:32.482Z,17.02
2023-08-12T05:58:58.951Z,17.57
2023-08-12T06:01:25.563Z,15.95
2023-08-12T06:03:52.143Z,15.55
2023-08-12T06:06:18.585Z,20.30
2023-08-12T06:08:45.024Z,19.38
2023-08-12T06:11:11.578Z,17.03
2023-08-12T06:13:38.096Z,18.05
2023-08-12T06:16:04.933Z,17.95
2023-08-12T06:18:31.520Z,19.80
2023-08-12T06:20:57.946Z,16.35
2023-08-12T06:23:26.655Z,18.17
2023-08-12T06:25:54.281Z,19.73
2023-08-12T06:28:20.866Z,22.35
2023-08-12T06:30:47.886Z,14.30
2023-08-12T06:33:14.368Z,17.95
2023-08-12T06:35:40.999Z,12.93
2023-08-12T06:38:07.533Z,8.32
2023-08-12T06:40:34.138Z,9.85
2023-08-12T06:43:02.484Z,8.55
2023-08-12T06:45:29.041Z,7.55
2023-08-12T06:47:55.616Z,8.07
2023-08-12T06:50:22.213Z,7.82
2023-08-12T06:52:48.751Z,8.00
2023-08-12T06:55:16.192Z,9.55
2023-08-12T06:57:42.716Z,6.60
2023-08-12T07:00:09.674Z,8.60
2023-08-12T07:02:36.207Z,7.10
2023-08-12T07:05:02.753Z,6.72
2023-08-12T07:07:29.383Z,5.75
2023-08-12T07:09:55.955Z,5.50
2023-08-12T07:12:22.544Z,4.10
2023-08-12T07:14:48.926Z,4.53
2023-08-12T07:17:17.348Z,3.85
2023-08-12T07:19:45.049Z,4.57
2023-08-12T07:22:11.791Z,4.03
2023-08-12T07:24:39.307Z,4.57
2023-08-12T07:27:20.150Z,4.80
2023-08-12T07:29:49.756Z,4.25
2023-08-12T07:32:18.221Z,6.07
2023-08-12T07:34:44.601Z,5.03
2023-08-12T07:37:12.454Z,3.93
2023-08-12T07:39:40.025Z,3.83
2023-08-12T07:42:06.564Z,4.85
2023-08-12T07:44:34.066Z,4.60
2023-08-12T07:47:00.618Z,4.10
2023-08-12T07:49:27.317Z,5.87
2023-08-12T07:51:53.847Z,5.10
2023-08-12T07:54:20.411Z,5.72
2023-08-12T07:56:46.795Z,3.85
2023-08-12T07:59:13.187Z,3.95
2023-08-12T08:01:39.672Z,4.00
2023-08-12T08:04:06.408Z,4.05
2023-08-12T08:06:32.923Z,3.00
2023-08-12T08:08:59.429Z,3.40
2023-08-12T08:11:26.026Z,2.92
2023-08-12T08:13:52.443Z,3.13
2023-08-12T08:16:18.928Z,2.70
2023-08-12T08:18:45.567Z,3.50
2023-08-12T08:21:13.023Z,2.60
2023-08-12T08:23:41.967Z,2.33
2023-08-12T08:26:09.375Z,2.83
2023-08-12T08:28:36.195Z,3.17
2023-08-12T08:31:02.769Z,2.10
2023-08-12T08:33:29.467Z,8.68
2023-08-12T08:35:55.955Z,2.80
2023-08-12T08:38:22.396Z,3.23
2023-08-12T08:40:51.592Z,2.88
2023-08-12T08:43:22.205Z,5.53
2023-08-12T08:45:53.422Z,2.33
2023-08-12T08:48:21.032Z,11.20
2023-08-12T08:50:49.623Z,7.03
2023-08-12T08:53:17.621Z,9.30
2023-08-12T08:55:45.618Z,8.27
2023-08-12T08:58:15.012Z,5.05
2023-08-12T09:00:51.312Z,4.10
2023-08-12T09:03:18.451Z,6.87
2023-08-12T09:05:45.647Z,5.57
2023-08-12T09:08:12.959Z,3.85
2023-08-12T09:10:40.403Z,5.93
2023-08-12T09:13:07.972Z,7.43
2023-08-12T09:15:41.160Z,2.70
2023-08-12T09:18:07.907Z,6.15
2023-08-12T09:20:35.273Z,10.18
2023-08-12T09:23:02.510Z,3.15
2023-08-12T09:25:29.653Z,6.85
2023-08-12T09:27:59.188Z,5.57
2023-08-12T09:30:29.317Z,6.20
2023-08-12T09:33:02.991Z,5.18
2023-08-12T09:35:41.212Z,4.90
2023-08-12T09:38:11.733Z,5.43
2023-08-12T09:40:38.841Z,6.37
2023-08-12T09:43:05.634Z,6.15
2023-08-12T09:45:33.653Z,5.18
2023-08-12T09:48:00.777Z,7.38
2023-08-12T09:50:29.292Z,7.28
2023-08-12T09:52:56.478Z,6.83
2023-08-12T09:55:25.611Z,4.85
2023-08-12T09:57:53.771Z,3.67
2023-08-12T10:00:22.252Z,6.72
2023-08-12T10:02:51.522Z,7.35
2023-08-12T10:05:25.117Z,6.87
2023-08-12T10:07:52.344Z,11.43
2023-08-12T10:10:19.237Z,5.40
2023-08-12T10:12:46.711Z,9.98
2023-08-12T10:15:13.342Z,3.42
2023-08-12T10:17:43.693Z,9.33
2023-08-12T10:20:14.376Z,10.55
2023-08-12T10:22:50.181Z,5.68
2023-08-12T10:25:18.698Z,9.48
2023-08-12T10:27:45.459Z,7.75
2023-08-12T10:30:13.979Z,9.47
2023-08-12T10:32:40.992Z,6.35
2023-08-12T10:35:08.255Z,6.45
2023-08-12T10:37:36.176Z,7.35
2023-08-12T10:40:22.484Z,11.15
2023-08-12T10:42:50.212Z,12.13
2023-08-12T10:45:18.665Z,10.23
2023-08-12T10:47:53.162Z,7.05
2023-08-12T10:50:23.165Z,7.18
2023-08-12T10:52:53.775Z,6.75
2023-08-12T10:55:24.774Z,9.73
2023-08-12T10:57:56.362Z,7.78
2023-08-12T11:00:30.452Z,6.05
2023-08-12T11:02:58.181Z,10.02
2023-08-12T11:05:25.877Z,11.07
2023-08-12T11:08:02.559Z,7.00
2023-08-12T11:10:34.603Z,6.70
2023-08-12T11:13:04.922Z,6.43
2023-08-12T11:15:42.262Z,7.45
2023-08-12T11:18:11.308Z,7.18
2023-08-12T11:20:38.599Z,5.97
2023-08-12T11:23:06.151Z,4.70
2023-08-12T11:25:34.424Z,10.38
2023-08-12T11:28:01.170Z,12.20
2023-08-12T11:30:30.457Z,7.85
2023-08-12T11:33:00.015Z,6.93
2023-08-12T11:35:26.549Z,8.82
2023-08-12T11:37:55.797Z,8.70
2023-08-12T11:40:22.946Z,9.90
2023-08-12T11:42:51.057Z,8.40
2023-08-12T11:45:20.350Z,10.20
2023-08-12T11:47:47.107Z,9.20
2023-08-12T11:50:14.065Z,10.00
2023-08-12T11:52:41.391Z,9.93
2023-08-12T11:55:08.829Z,8.40
2023-08-12T11:57:35.389Z,11.23
2023-08-12T12:00:08.797Z,17.30
2023-08-12T12:02:41.656Z,6.97
2023-08-12T12:05:11.861Z,15.68
2023-08-12T12:07:38.995Z,10.88
2023-08-12T12:10:07.149Z,11.57
2023-08-12T12:12:37.095Z,18.55
2023-08-12T12:15:04.786Z,11.98
2023-08-12T12:17:31.625Z,10.18
2023-08-12T12:20:00.577Z,7.32
2023-08-12T12:22:31.228Z,11.40
2023-08-12T12:25:06.014Z,9.43
2023-08-12T12:27:32.471Z,9.27
2023-08-12T12:29:59.040Z,13.70
2023-08-12T12:32:25.499Z,7.90
2023-08-12T12:34:52.180Z,9.17
2023-08-12T12:37:18.693Z,9.00
2023-08-12T12:39:45.115Z,7.57
2023-08-12T12:42:11.969Z,7.68
2023-08-12T12:44:38.688Z,9.77
2023-08-12T12:47:06.221Z,7.93
2023-08-12T12:49:32.702Z,9.73
2023-08-12T12:51:59.105Z,13.50
2023-08-12T12:54:25.614Z,7.72
2023-08-12T12:56:52.235Z,9.63
2023-08-12T12:59:18.913Z,8.00
2023-08-12T13:01:46.006Z,8.38
2023-08-12T13:04:12.603Z,8.35
2023-08-12T13:06:39.066Z,10.63
2023-08-12T13:09:05.490Z,9.05
2023-08-12T13:11:34.187Z,8.30
2023-08-12T13:14:00.612Z,9.90
2023-08-12T13:16:27.067Z,9.13
2023-08-12T13:18:53.824Z,13.23
2023-08-12T13:21:20.299Z,12.65
2023-08-12T13:23:46.771Z,12.03
2023-08-12T13:26:13.185Z,10.18
2023-08-12T13:28:39.634Z,9.32
2023-08-12T13:31:06.115Z,7.38
2023-08-12T13:33:32.558Z,10.05
2023-08-12T13:35:59.002Z,12.13
2023-08-12T13:38:25.529Z,9.35
2023-08-12T13:40:52.157Z,10.43
2023-08-12T13:43:18.656Z,7.35
2023-08-12T13:45:45.061Z,7.60
2023-08-12T13:48:11.646Z,6.73
2023-08-12T13:50:37.995Z,10.38
2023-08-12T13:53:04.613Z,11.45
2023-08-12T13:55:30.986Z,8.60
2023-08-12T13:57:57.430Z,8.25
2023-08-12T14:00:23.891Z,9.20
2023-08-12T14:02:50.320Z,10.63
2023-08-12T14:05:16.864Z,8.50
2023-08-12T14:07:43.379Z,10.48
2023-08-12T14:10:10.083Z,9.15
2023-08-12T14:12:36.536Z,9.03
2023-08-12T14:15:03.415Z,8.02
2023-08-12T14:17:30.123Z,9.13
2023-08-12T14:19:56.561Z,10.25
2023-08-12T14:22:23.002Z,12.80
2023-08-12T14:24:49.447Z,12.53
2023-08-12T14:27:18.791Z,12.43
2023-08-12T14:29:45.770Z,12.25
2023-08-12T14:32:14.268Z,7.65
2023-08-12T14:34:40.654Z,8.80
2023-08-12T14:37:07.132Z,7.93
2023-08-12T14:39:33.570Z,12.68
2023-08-12T14:42:00.012Z,8.55
2023-08-12T14:44:26.486Z,6.60
2023-08-12T14:46:52.985Z,7.03
2023-08-12T14:49:19.573Z,13.33
2023-08-12T14:51:46.021Z,10.68
2023-08-12T14:54:13.432Z,9.85
2023-08-12T14:56:39.864Z,10.00
2023-08-12T14:59:06.298Z,9.45
2023-08-12T15:01:32.747Z,8.53
2023-08-12T15:03:59.461Z,9.88
2023-08-12T15:06:25.934Z,10.02
2023-08-12T15:08:52.340Z,9.35
2023-08-12T15:11:18.818Z,8.85
2023-08-12T15:13:45.226Z,8.80
2023-08-12T15:16:11.828Z,8.40
2023-08-12T15:18:38.223Z,9.70
2023-08-12T15:21:04.673Z,9.02
2023-08-12T15:23:31.041Z,11.70
2023-08-12T15:25:57.465Z,8.60
2023-08-12T15:28:24.025Z,6.15
2023-08-12T15:30:51.548Z,11.30
2023-08-12T15:33:18.153Z,8.80
2023-08-12T15:35:44.633Z,9.45
2023-08-12T15:38:11.051Z,8.63
2023-08-12T15:40:38.783Z,9.25
2023-08-12T15:43:05.522Z,8.40
2023-08-12T15:45:32.479Z,9.88
2023-08-12T15:47:59.013Z,8.48
2023-08-12T15:50:25.437Z,8.10
2023-08-12T15:52:54.601Z,8.05
2023-08-12T15:55:21.095Z,6.68
2023-08-12T15:57:47.759Z,9.43
2023-08-12T16:00:14.208Z,7.35
2023-08-12T16:02:40.783Z,6.83
2023-08-12T16:05:07.661Z,8.50
2023-08-12T16:07:37.133Z,8.43
2023-08-12T16:10:04.170Z,7.20
2023-08-12T16:12:30.919Z,7.40
2023-08-12T16:14:57.277Z,10.47
2023-08-12T16:17:23.736Z,10.43
2023-08-12T16:19:50.125Z,11.90
2023-08-12T16:22:16.492Z,7.82
2023-08-12T16:24:43.391Z,7.32
2023-08-12T16:27:09.833Z,7.83
2023-08-12T16:29:36.533Z,8.25
2023-08-12T16:32:03.707Z,8.30
2023-08-12T16:34:30.202Z,8.15
2023-08-12T16:37:14.691Z,6.35
2023-08-12T16:39:43.098Z,10.87
2023-08-12T16:42:09.536Z,7.38
2023-08-12T16:44:36.048Z,7.00
2023-08-12T16:47:02.438Z,9.85
2023-08-12T16:49:28.898Z,6.00
2023-08-12T16:51:55.779Z,9.40
2023-08-12T16:54:22.238Z,6.43
2023-08-12T16:56:48.689Z,5.70
2023-08-12T16:59:15.081Z,7.00
2023-08-12T17:01:42.527Z,8.07
2023-08-12T17:04:09.608Z,8.83
2023-08-12T17:06:36.101Z,9.50
2023-08-12T17:09:03.575Z,7.55
2023-08-12T17:11:32.059Z,7.47
2023-08-12T17:13:58.632Z,5.55
2023-08-12T17:16:25.436Z,7.83
2023-08-12T17:18:51.971Z,8.80
2023-08-12T17:21:18.435Z,9.13
2023-08-12T17:23:44.856Z,7.55
2023-08-12T17:26:11.331Z,7.10
2023-08-12T17:28:37.843Z,5.77
2023-08-12T17:31:04.334Z,11.10
2023-08-12T17:33:30.768Z,9.35
2023-08-12T17:35:57.242Z,6.90
2023-08-12T17:38:23.890Z,8.93
2023-08-12T17:40:50.857Z,11.10
2023-08-12T17:43:17.932Z,12.25
2023-08-12T17:45:44.500Z,8.45
2023-08-12T17:48:10.945Z,8.55
2023-08-12T17:50:37.346Z,8.23
2023-08-12T17:53:03.864Z,11.63
2023-08-12T17:55:30.271Z,8.93
2023-08-12T17:57:56.994Z,9.88
2023-08-12T18:00:23.403Z,13.38
2023-08-12T18:02:50.658Z,7.28
2023-08-12T18:05:17.323Z,8.03
2023-08-12T18:07:43.874Z,11.18
2023-08-12T18:10:10.403Z,10.40
2023-08-12T18:12:36.857Z,10.05
2023-08-12T18:15:05.305Z,11.25
2023-08-12T18:17:33.643Z,12.47
2023-08-12T18:20:00.194Z,11.90
2023-08-12T18:22:26.679Z,10.52
2023-08-12T18:24:53.253Z,7.90
2023-08-12T18:27:19.718Z,7.10
2023-08-12T18:29:46.147Z,9.37
2023-08-12T18:32:13.717Z,8.75
2023-08-12T18:34:40.507Z,12.00
2023-08-12T18:37:08.095Z,11.35
2023-08-12T18:39:34.632Z,12.88
2023-08-12T18:42:01.243Z,10.20
2023-08-12T18:44:27.684Z,9.40
2023-08-12T18:46:54.211Z,12.40
2023-08-12T18:49:20.709Z,6.57
2023-08-12T18:51:48.302Z,12.27
2023-08-12T18:54:14.808Z,13.87
2023-08-12T18:56:41.356Z,14.40
2023-08-12T18:59:09.530Z,10.38
2023-08-12T19:01:36.056Z,9.75
2023-08-12T19:04:06.241Z,11.38
2023-08-12T19:06:32.871Z,9.17
2023-08-12T19:08:59.279Z,13.60
2023-08-12T19:11:25.717Z,7.38
2023-08-12T19:13:52.130Z,10.45
2023-08-12T19:16:18.872Z,8.07
2023-08-12T19:18:45.416Z,9.67
2023-08-12T19:21:11.913Z,9.40
2023-08-12T19:23:38.375Z,11.35
2023-08-12T19:26:04.907Z,9.60
2023-08-12T19:28:31.436Z,9.48
2023-08-12T19:30:57.974Z,12.03
2023-08-12T19:33:24.494Z,14.27
2023-08-12T19:35:51.927Z,8.68
2023-08-12T19:38:20.858Z,10.25
2023-08-12T19:40:47.455Z,10.10
2023-08-12T19:43:13.918Z,7.33
2023-08-12T19:45:40.452Z,9.35
2023-08-12T19:48:07.338Z,8.45
2023-08-12T19:50:33.850Z,7.43
2023-08-12T19:53:00.440Z,8.60
2023-08-12T19:55:27.010Z,9.50
2023-08-12T19:57:53.526Z,6.88
2023-08-12T20:00:20.200Z,8.00
2023-08-12T20:02:47.403Z,9.27
2023-08-12T20:05:17.340Z,9.63
2023-08-12T20:07:47.043Z,8.30
2023-08-12T20:10:19.052Z,8.25
2023-08-12T20:12:46.489Z,8.35
2023-08-12T20:15:13.970Z,10.85
2023-08-12T20:17:42.416Z,9.55
2023-08-12T20:20:11.018Z,7.73
2023-08-12T20:22:41.901Z,5.88
2023-08-12T20:25:15.348Z,8.57
2023-08-12T20:27:42.851Z,11.18
2023-08-12T20:30:09.942Z,9.90
2023-08-12T20:32:37.948Z,5.77
2023-08-12T20:35:04.878Z,9.60
2023-08-12T20:37:34.244Z,12.02
2023-08-12T20:40:18.608Z,12.85
2023-08-12T20:42:49.464Z,7.10
2023-08-12T20:45:18.989Z,11.83
2023-08-12T20:47:45.580Z,7.28
2023-08-12T20:50:15.290Z,10.23
2023-08-12T20:52:41.753Z,10.90
2023-08-12T20:55:09.062Z,8.38
2023-08-12T20:57:35.771Z,12.27
2023-08-12T21:00:07.497Z,15.10
2023-08-12T21:02:35.092Z,9.85
2023-08-12T21:05:01.665Z,10.90
2023-08-12T21:07:28.289Z,11.50
2023-08-12T21:09:54.928Z,8.07
2023-08-12T21:12:22.156Z,8.10
2023-08-12T21:14:48.750Z,7.55
2023-08-12T21:17:15.887Z,14.25
2023-08-12T21:19:42.438Z,10.80
2023-08-12T21:22:10.945Z,10.70
2023-08-12T21:24:37.424Z,9.60
2023-08-12T21:27:04.004Z,8.95
2023-08-12T21:29:30.756Z,10.13
2023-08-12T21:31:57.163Z,13.90
2023-08-12T21:34:23.944Z,12.63
2023-08-12T21:36:50.428Z,11.50
2023-08-12T21:39:16.838Z,10.15
2023-08-12T21:41:43.254Z,7.63
2023-08-12T21:44:09.755Z,8.10
2023-08-12T21:46:36.229Z,11.13
2023-08-12T21:49:03.909Z,12.50
2023-08-12T21:51:30.796Z,16.48
2023-08-12T21:53:57.218Z,9.43
2023-08-12T21:56:23.735Z,9.88
2023-08-12T21:58:50.720Z,8.47
2023-08-12T22:01:19.431Z,10.98
2023-08-12T22:03:45.914Z,9.85
2023-08-12T22:06:12.499Z,15.13
2023-08-12T22:08:39.201Z,10.43
2023-08-12T22:11:05.835Z,12.33
2023-08-12T22:13:32.511Z,14.13
2023-08-12T22:15:59.045Z,11.05
2023-08-12T22:18:25.526Z,7.63
2023-08-12T22:20:53.487Z,12.70
2023-08-12T22:23:22.671Z,11.13
2023-08-12T22:25:50.164Z,11.20
2023-08-12T22:28:16.678Z,13.18
2023-08-12T22:30:43.165Z,14.07
2023-08-12T22:33:09.681Z,12.07
2023-08-12T22:35:36.226Z,15.90
2023-08-12T22:38:02.799Z,9.98
2023-08-12T22:40:29.896Z,11.07
2023-08-12T22:42:56.378Z,9.02
2023-08-12T22:45:22.852Z,11.23
2023-08-12T22:47:49.326Z,12.23
2023-08-12T22:50:15.866Z,12.50
2023-08-12T22:52:42.400Z,13.20
2023-08-12T22:55:09.497Z,12.32
2023-08-12T22:57:36.005Z,13.85
2023-08-12T23:00:02.731Z,8.47
2023-08-12T23:02:29.323Z,12.85
2023-08-12T23:04:55.829Z,9.63
2023-08-12T23:07:22.167Z,11.50
2023-08-12T23:09:48.619Z,14.23
2023-08-12T23:12:15.541Z,13.63
2023-08-12T23:14:42.194Z,10.70
2023-08-12T23:17:08.661Z,8.65
2023-08-12T23:19:35.151Z,11.20
2023-08-12T23:22:01.502Z,8.57
2023-08-12T23:24:28.395Z,11.53
2023-08-12T23:26:54.803Z,9.00
2023-08-12T23:29:21.266Z,9.70
2023-08-12T23:31:47.763Z,13.77
2023-08-12T23:34:14.609Z,13.27
2023-08-12T23:36:41.143Z,7.33
2023-08-12T23:39:07.565Z,12.85
2023-08-12T23:41:34.013Z,10.48
2023-08-12T23:44:00.450Z,12.60
2023-08-12T23:46:27.015Z,7.97
2023-08-12T23:48:53.481Z,9.23
2023-08-12T23:51:19.942Z,10.25
2023-08-12T23:53:46.362Z,13.35
2023-08-12T23:56:12.777Z,10.93
2023-08-12T23:58:39.238Z,14.98
